Time;durP1;ratioP1;P1;durP2;ratioP2;P2;SDS_P1;SDS_P2;PMS_P1;PMS_P2;Temp;Humidity;BMP_temperature;BMP_pressure;BME280_temperature;BME280_humidity;BME280_pressure;Samples;Min_cycle;Max_cycle;Signal;HPM_P1;HPM_P2
2022/02/04 00:08:22;;;;;;;;;12.25;12.25;;;;;;;;4980224;28;11259;-74
2022/02/04 00:22:09;;;;;;;;;13.00;10.75;;;;;;;;5038835;28;11702;-74
2022/02/04 00:24:38;;;;;;;;;12.50;12.50;;;;;;;;5035304;28;11073;-75
2022/02/04 00:27:09;;;;;;;;;13.00;13.00;;;;;;;;5044126;28;10938;-74
2022/02/04 00:29:46;;;;;;;;;14.00;12.50;;;;;;;;5038231;28;11042;-74
2022/02/04 00:32:14;;;;;;;;;11.00;9.00;;;;;;;;5043749;28;11000;-74
2022/02/04 00:34:46;;;;;;;;;11.00;11.00;;;;;;;;5039691;28;10988;-74
2022/02/04 00:37:24;;;;;;;;;11.25;11.25;;;;;;;;5037065;28;10968;-73
2022/02/04 00:39:58;;;;;;;;;11.50;11.50;;;;;;;;5041386;28;10937;-74
2022/02/04 00:42:27;;;;;;;;;15.75;13.75;;;;;;;;5034350;28;12208;-73
2022/02/04 00:45:03;;;;;;;;;14.00;11.50;;;;;;;;5039646;28;10970;-74
2022/02/04 00:47:33;;;;;;;;;14.00;11.25;;;;;;;;5043339;28;10964;-73
2022/02/04 00:50:07;;;;;;;;;10.50;10.50;;;;;;;;5043303;28;10927;-74
2022/02/04 00:52:42;;;;;;;;;11.25;11.25;;;;;;;;5044361;28;11017;-73
2022/02/04 00:55:21;;;;;;;;;12.00;12.00;;;;;;;;5037910;28;10891;-75
2022/02/04 00:57:55;;;;;;;;;12.75;11.25;;;;;;;;5035297;28;10977;-75
2022/02/04 01:28:08;;;;;;;;;9.50;9.50;;;;;;;;5039684;28;10912;-74
2022/02/04 01:30:38;;;;;;;;;2.50;2.50;;;;;;;;5035953;28;10965;-74
2022/02/04 01:33:06;;;;;;;;;10.00;10.00;;;;;;;;5033690;28;10836;-74
2022/02/04 01:35:33;;;;;;;;;8.00;7.50;;;;;;;;5038302;28;10859;-74
2022/02/04 01:38:00;;;;;;;;;10.25;10.25;;;;;;;;5045387;28;10755;-74
2022/02/04 01:40:28;;;;;;;;;9.00;9.00;;;;;;;;5034801;28;10804;-74
2022/02/04 01:42:55;;;;;;;;;11.00;6.00;;;;;;;;5066968;28;10809;-75
2022/02/04 01:45:24;;;;;;;;;11.75;10.25;;;;;;;;5038244;28;10796;-74
2022/02/04 01:47:56;;;;;;;;;11.00;11.00;;;;;;;;5041249;28;10825;-74
2022/02/04 01:50:24;;;;;;;;;11.25;11.00;;;;;;;;5037005;28;10879;-76
2022/02/04 01:52:52;;;;;;;;;14.75;14.75;;;;;;;;5035222;28;10904;-75
2022/02/04 01:55:19;;;;;;;;;9.25;7.75;;;;;;;;5037948;28;10734;-75
2022/02/04 01:57:47;;;;;;;;;13.25;9.75;;;;;;;;5035657;28;10877;-74
2022/02/04 02:00:15;;;;;;;;;14.75;9.50;;;;;;;;5039794;28;11546;-74
2022/02/04 02:02:44;;;;;;;;;12.00;9.75;;;;;;;;5038408;28;10830;-74
2022/02/04 02:05:12;;;;;;;;;11.00;9.50;;;;;;;;5041176;28;11075;-74
2022/02/04 02:07:44;;;;;;;;;11.50;11.25;;;;;;;;5039643;28;10832;-76
2022/02/04 02:10:15;;;;;;;;;10.75;10.75;;;;;;;;5041170;28;10703;-75
2022/02/04 02:12:50;;;;;;;;;10.50;10.25;;;;;;;;5035847;28;11037;-75
2022/02/04 02:15:24;;;;;;;;;8.75;8.75;;;;;;;;5027933;28;11665;-77
2022/02/04 02:41:03;;;;;;;;;9.75;8.25;;;;;;;;5040057;28;10798;-74
2022/02/04 02:43:25;;;;;;;;;11.75;8.25;;;;;;;;5041323;28;10863;-74
2022/02/04 02:46:04;;;;;;;;;7.25;6.50;;;;;;;;5035608;28;10992;-74
2022/02/04 02:51:37;;;;;;;;;8.25;8.00;;;;;;;;4958631;28;10935;-74
2022/02/04 02:54:17;;;;;;;;;10.50;9.00;;;;;;;;5036106;28;10938;-73
2022/02/04 02:57:23;;;;;;;;;9.75;6.75;;;;;;;;5026616;28;11499;-74
2022/02/04 02:59:56;;;;;;;;;12.50;11.75;;;;;;;;5042529;28;10881;-74
2022/02/04 03:02:23;;;;;;;;;15.25;13.00;;;;;;;;5032308;28;10830;-73
2022/02/04 03:04:50;;;;;;;;;11.25;11.25;;;;;;;;5037201;28;10829;-73
2022/02/04 03:07:18;;;;;;;;;20.50;16.25;;;;;;;;5034759;28;10887;-73
2022/02/04 03:09:45;;;;;;;;;12.50;12.50;;;;;;;;5039140;28;11707;-74
2022/02/04 03:12:14;;;;;;;;;14.75;14.00;;;;;;;;5029758;28;10976;-74
2022/02/04 03:14:42;;;;;;;;;10.75;9.00;;;;;;;;5035267;28;10876;-74
2022/02/04 03:17:12;;;;;;;;;11.00;11.00;;;;;;;;5037604;28;10964;-74
2022/02/04 03:19:42;;;;;;;;;15.50;11.50;;;;;;;;5031557;28;11067;-74
2022/02/04 03:22:12;;;;;;;;;20.00;18.00;;;;;;;;5033098;28;10945;-74
2022/02/04 03:24:41;;;;;;;;;10.75;10.75;;;;;;;;5033591;28;11071;-74
2022/02/04 03:27:12;;;;;;;;;14.00;12.00;;;;;;;;5028870;28;11075;-74
2022/02/04 03:29:58;;;;;;;;;14.00;14.00;;;;;;;;5030537;28;11066;-74
2022/02/04 03:32:25;;;;;;;;;12.00;12.00;;;;;;;;5027416;28;11029;-74
2022/02/04 03:34:53;;;;;;;;;13.00;12.00;;;;;;;;5028156;28;11176;-74
2022/02/04 03:37:20;;;;;;;;;17.50;15.00;;;;;;;;5038579;28;11108;-74
2022/02/04 03:39:47;;;;;;;;;16.50;15.00;;;;;;;;5031608;28;11012;-74
2022/02/04 03:42:14;;;;;;;;;11.50;11.25;;;;;;;;5033380;28;11879;-74
2022/02/04 03:44:43;;;;;;;;;13.50;13.50;;;;;;;;5031153;28;11044;-75
2022/02/04 03:47:11;;;;;;;;;13.50;13.50;;;;;;;;5038819;28;10953;-74
2022/02/04 03:49:38;;;;;;;;;14.00;14.00;;;;;;;;5034398;28;10976;-73
2022/02/04 03:52:06;;;;;;;;;18.00;11.00;;;;;;;;5035407;28;10965;-73
2022/02/04 03:54:33;;;;;;;;;13.50;12.25;;;;;;;;5044031;28;10920;-74
2022/02/04 03:57:00;;;;;;;;;11.75;11.75;;;;;;;;5045816;28;10896;-74
2022/02/04 03:59:28;;;;;;;;;13.50;11.50;;;;;;;;5037085;28;11024;-73
2022/02/04 04:01:57;;;;;;;;;13.00;13.00;;;;;;;;5039572;28;10943;-74
2022/02/04 04:04:29;;;;;;;;;22.50;11.25;;;;;;;;5047032;28;10899;-75
2022/02/04 04:06:58;;;;;;;;;11.00;9.50;;;;;;;;5033740;28;11026;-74
2022/02/04 04:09:25;;;;;;;;;9.50;9.50;;;;;;;;5038029;28;10904;-74
2022/02/04 04:11:53;;;;;;;;;11.25;10.50;;;;;;;;5033490;28;10804;-74
2022/02/04 04:14:20;;;;;;;;;9.25;6.50;;;;;;;;5042849;28;10967;-74
2022/02/04 04:16:48;;;;;;;;;14.75;12.50;;;;;;;;5037567;28;10815;-74
2022/02/04 04:19:16;;;;;;;;;20.50;15.00;;;;;;;;5035817;28;11074;-74
2022/02/04 04:21:43;;;;;;;;;15.25;12.00;;;;;;;;5043513;28;11097;-74
2022/02/04 04:24:11;;;;;;;;;11.50;11.50;;;;;;;;5044459;28;11194;-73
2022/02/04 04:26:40;;;;;;;;;15.75;10.00;;;;;;;;5037642;28;10863;-74
2022/02/04 04:29:08;;;;;;;;;9.75;9.75;;;;;;;;5031192;28;10905;-74
2022/02/04 04:31:35;;;;;;;;;5.75;5.25;;;;;;;;5033164;28;10790;-74
2022/02/04 04:34:03;;;;;;;;;12.50;9.50;;;;;;;;5040147;28;10958;-74
2022/02/04 04:36:33;;;;;;;;;8.25;6.25;;;;;;;;5043154;28;10956;-74
2022/02/04 04:39:08;;;;;;;;;11.75;10.50;;;;;;;;5038502;28;11028;-73
2022/02/04 04:41:48;;;;;;;;;10.25;10.25;;;;;;;;5034226;28;10887;-73
2022/02/04 05:28:17;;;;;;;;;13.00;11.00;;;;;;;;5029236;28;10993;-75
2022/02/04 05:30:44;;;;;;;;;10.25;10.25;;;;;;;;5035835;28;10846;-74
2022/02/04 05:33:11;;;;;;;;;14.75;13.00;;;;;;;;5042615;28;10985;-74
2022/02/04 05:35:39;;;;;;;;;11.75;11.75;;;;;;;;5042932;28;10978;-73
2022/02/04 05:38:10;;;;;;;;;11.25;11.25;;;;;;;;5028706;28;11937;-73
2022/02/04 05:40:42;;;;;;;;;16.00;14.50;;;;;;;;5028366;28;10909;-73
2022/02/04 05:43:17;;;;;;;;;20.75;19.50;;;;;;;;5040560;28;11030;-74
2022/02/04 05:45:53;;;;;;;;;14.25;14.25;;;;;;;;5035091;28;11101;-74
2022/02/04 05:48:21;;;;;;;;;12.25;10.25;;;;;;;;5042398;28;11024;-73
2022/02/04 05:50:58;;;;;;;;;9.75;9.25;;;;;;;;5038289;28;10872;-73
2022/02/04 05:53:31;;;;;;;;;10.00;10.00;;;;;;;;5033935;28;10926;-74
2022/02/04 05:56:08;;;;;;;;;13.50;10.50;;;;;;;;5043614;28;10758;-74
2022/02/04 05:58:57;;;;;;;;;14.25;11.50;;;;;;;;5047031;28;11647;-76
2022/02/04 06:01:45;;;;;;;;;11.25;11.25;;;;;;;;5058510;28;11044;-74
2022/02/04 06:07:12;;;;;;;;;6.50;6.50;;;;;;;;5075986;28;10969;-75
2022/02/04 06:13:07;;;;;;;;;14.00;12.50;;;;;;;;5061397;28;11060;-73
2022/02/04 06:23:45;;;;;;;;;14.25;10.50;;;;;;;;5063815;28;11086;-75
2022/02/04 06:26:13;;;;;;;;;12.25;11.50;;;;;;;;5059079;28;11127;-76
2022/02/04 06:28:41;;;;;;;;;20.00;18.75;;;;;;;;5062122;28;11196;-76
2022/02/04 06:31:09;;;;;;;;;13.50;12.25;;;;;;;;5059534;28;11903;-76
2022/02/04 06:33:36;;;;;;;;;19.25;19.00;;;;;;;;5062790;28;11901;-76
2022/02/04 06:36:05;;;;;;;;;13.50;10.75;;;;;;;;5063843;28;11043;-75
2022/02/04 06:38:32;;;;;;;;;14.75;14.75;;;;;;;;5062838;28;11729;-76
2022/02/04 06:41:00;;;;;;;;;15.50;15.50;;;;;;;;5062842;28;11219;-76
2022/02/04 06:43:27;;;;;;;;;14.00;11.75;;;;;;;;5063181;28;10907;-76
2022/02/04 06:45:56;;;;;;;;;16.75;14.50;;;;;;;;5062274;28;10980;-76
2022/02/04 06:48:23;;;;;;;;;12.00;12.00;;;;;;;;5059754;28;11887;-75
2022/02/04 06:50:51;;;;;;;;;13.75;12.25;;;;;;;;5062386;28;11138;-76
2022/02/04 06:53:18;;;;;;;;;15.25;14.25;;;;;;;;5062097;28;11291;-76
2022/02/04 06:55:46;;;;;;;;;9.25;9.25;;;;;;;;5059665;28;11125;-75
2022/02/04 06:58:13;;;;;;;;;15.25;15.25;;;;;;;;5062846;28;10858;-76
2022/02/04 07:00:42;;;;;;;;;21.00;15.75;;;;;;;;5061305;28;10894;-76
2022/02/04 07:03:11;;;;;;;;;12.25;12.25;;;;;;;;5062931;28;11014;-76
2022/02/04 07:05:53;;;;;;;;;12.75;12.75;;;;;;;;5060546;28;10894;-76
2022/02/04 07:08:25;;;;;;;;;19.50;13.00;;;;;;;;5060799;28;11860;-75
2022/02/04 07:13:46;;;;;;;;;15.00;14.50;;;;;;;;5060426;28;12157;-75
2022/02/04 07:16:30;;;;;;;;;15.75;14.25;;;;;;;;5059692;28;11016;-75
2022/02/04 07:21:44;;;;;;;;;17.00;12.50;;;;;;;;5059895;28;11107;-75
2022/02/04 07:24:11;;;;;;;;;10.00;10.00;;;;;;;;5060154;28;11107;-82
2022/02/04 07:26:38;;;;;;;;;16.00;14.75;;;;;;;;5061511;28;11058;-79
2022/02/04 07:29:06;;;;;;;;;14.25;14.25;;;;;;;;5061083;28;11154;-84
2022/02/04 07:31:37;;;;;;;;;20.25;19.50;;;;;;;;5059601;28;11143;-86
2022/02/04 07:34:14;;;;;;;;;25.25;21.50;;;;;;;;5066356;28;11512;-86
2022/02/04 07:42:11;;;;;;;;;19.00;19.00;;;;;;;;5061728;28;11259;-82
2022/02/04 07:44:38;;;;;;;;;20.00;19.75;;;;;;;;5063219;28;11384;-86
2022/02/04 07:47:05;;;;;;;;;23.50;21.75;;;;;;;;5063037;28;12366;-82
2022/02/04 07:49:34;;;;;;;;;19.25;17.25;;;;;;;;5060318;28;11372;-83
2022/02/04 07:52:02;;;;;;;;;22.50;19.25;;;;;;;;5062657;28;11157;-83
2022/02/04 07:54:30;;;;;;;;;25.00;23.75;;;;;;;;5063459;28;11093;-83
2022/02/04 07:56:57;;;;;;;;;24.75;20.00;;;;;;;;5061634;28;11368;-80
2022/02/04 07:59:24;;;;;;;;;24.00;19.25;;;;;;;;5062859;28;11577;-84
2022/02/04 08:01:52;;;;;;;;;18.50;18.25;;;;;;;;5063016;28;11110;-84
2022/02/04 08:04:23;;;;;;;;;19.75;19.00;;;;;;;;5063489;28;11221;-84
2022/02/04 08:06:56;;;;;;;;;16.50;16.50;;;;;;;;5062786;28;11374;-86
2022/02/04 08:09:32;;;;;;;;;15.00;13.00;;;;;;;;5062161;28;11688;-84
2022/02/04 08:14:54;;;;;;;;;15.00;15.00;;;;;;;;5056118;28;11139;-80
2022/02/04 08:17:42;;;;;;;;;18.25;14.50;;;;;;;;5062298;28;11117;-82
2022/02/04 08:20:26;;;;;;;;;17.00;15.00;;;;;;;;5062965;28;11178;-79
2022/02/04 08:23:09;;;;;;;;;15.00;15.00;;;;;;;;5062146;28;11125;-84
2022/02/04 08:34:37;;;;;;;;;12.00;12.00;;;;;;;;5021380;28;11068;-79
2022/02/04 08:37:37;;;;;;;;;14.00;11.00;;;;;;;;5021508;28;11054;-80
2022/02/04 08:54:22;;;;;;;;;8.75;7.50;;;;;;;;5026555;28;10856;-81
2022/02/04 08:59:43;;;;;;;;;5.75;5.75;;;;;;;;5057308;28;10750;-81
2022/02/04 09:02:15;;;;;;;;;6.75;6.25;;;;;;;;5035084;28;10725;-81
2022/02/04 09:04:46;;;;;;;;;7.75;4.75;;;;;;;;5041216;28;10874;-82
2022/02/04 09:07:16;;;;;;;;;7.00;7.00;;;;;;;;5042802;28;10816;-80
2022/02/04 09:09:50;;;;;;;;;5.50;3.50;;;;;;;;5039842;28;10649;-81
2022/02/04 09:16:54;;;;;;;;;5.00;5.00;;;;;;;;5042614;28;10706;-82
2022/02/04 09:18:34;;;;;;;;;5.50;5.00;;;;;;;;5043928;28;10583;-82
2022/02/04 09:24:09;;;;;;;;;2.25;2.25;;;;;;;;5117424;27;13518;-81
2022/02/04 09:26:37;;;;;;;;;2.00;2.00;;;;;;;;5111312;27;10368;-81
2022/02/04 09:29:04;;;;;;;;;2.75;2.75;;;;;;;;5112214;28;10470;-77
2022/02/04 09:31:32;;;;;;;;;3.50;2.75;;;;;;;;5091975;27;10362;-82
2022/02/04 09:33:59;;;;;;;;;1.00;1.00;;;;;;;;5081181;28;10467;-82
2022/02/04 09:36:27;;;;;;;;;2.00;2.00;;;;;;;;5079869;28;10464;-83
2022/02/04 09:38:56;;;;;;;;;2.00;2.00;;;;;;;;5078744;28;10246;-82
2022/02/04 09:41:25;;;;;;;;;2.00;2.00;;;;;;;;5081687;28;10471;-81
2022/02/04 09:43:52;;;;;;;;;0.50;0.50;;;;;;;;5081271;28;10312;-81
2022/02/04 09:46:20;;;;;;;;;1.50;1.50;;;;;;;;5080135;28;10475;-82
2022/02/04 09:48:49;;;;;;;;;3.00;1.25;;;;;;;;5082199;28;10568;-82
2022/02/04 09:51:20;;;;;;;;;2.00;2.00;;;;;;;;5080239;28;11081;-82
2022/02/04 10:11:13;;;;;;;;;0.25;0.25;;;;;;;;5001127;28;10200;-81
2022/02/04 10:13:57;;;;;;;;;0.00;0.00;;;;;;;;5050342;28;10044;-83
2022/02/04 10:16:43;;;;;;;;;0.00;0.00;;;;;;;;5081354;28;10151;-82
2022/02/04 10:19:22;;;;;;;;;0.00;0.00;;;;;;;;5080348;28;10142;-84
2022/02/04 10:21:57;;;;;;;;;0.00;0.00;;;;;;;;5062527;28;10038;-84
2022/02/04 10:24:26;;;;;;;;;0.00;0.00;;;;;;;;5072892;28;9937;-83
2022/02/04 10:27:11;;;;;;;;;0.00;0.00;;;;;;;;5080175;28;10062;-82
2022/02/04 10:29:42;;;;;;;;;1.00;1.00;;;;;;;;5071551;28;9981;-84
2022/02/04 10:32:09;;;;;;;;;0.00;0.00;;;;;;;;5081185;28;9804;-83
2022/02/04 10:34:38;;;;;;;;;0.00;0.00;;;;;;;;5070686;28;9812;-81
2022/02/04 10:37:18;;;;;;;;;0.00;0.00;;;;;;;;5054793;28;9739;-82
2022/02/04 10:40:00;;;;;;;;;0.00;0.00;;;;;;;;5054470;28;9721;-84
2022/02/04 10:42:37;;;;;;;;;0.00;0.00;;;;;;;;5054790;28;9782;-83
2022/02/04 10:48:17;;;;;;;;;0.00;0.00;;;;;;;;5057004;28;9815;-80
2022/02/04 10:51:25;;;;;;;;;0.00;0.00;;;;;;;;5065212;28;9702;-83
2022/02/04 10:54:22;;;;;;;;;0.00;0.00;;;;;;;;5061909;28;9568;-84
2022/02/04 10:57:12;;;;;;;;;0.00;0.00;;;;;;;;5045433;28;9926;-82
2022/02/04 11:00:00;;;;;;;;;0.00;0.00;;;;;;;;5058928;28;9688;-87
2022/02/04 11:02:40;;;;;;;;;0.00;0.00;;;;;;;;5059604;28;9559;-88
2022/02/04 11:05:18;;;;;;;;;0.00;0.00;;;;;;;;5045300;28;9626;-84
2022/02/04 11:08:16;;;;;;;;;0.00;0.00;;;;;;;;5064247;28;9551;-88
2022/02/04 11:33:51;;;;;;;;;0.00;0.00;;;;;;;;5046657;28;9447;-76
2022/02/04 11:51:47;;;;;;;;;0.00;0.00;;;;;;;;5039389;28;9324;-84
2022/02/04 11:54:39;;;;;;;;;0.00;0.00;;;;;;;;5059153;28;9332;-75
2022/02/04 11:57:18;;;;;;;;;0.00;0.00;;;;;;;;5053315;28;9328;-82
2022/02/04 11:59:47;;;;;;;;;0.00;0.00;;;;;;;;5056349;28;9259;-83
2022/02/04 12:02:33;;;;;;;;;0.00;0.00;;;;;;;;5054394;28;9049;-81
2022/02/04 12:05:30;;;;;;;;;1.00;0.00;;;;;;;;5046340;28;9910;-80
2022/02/04 12:08:27;;;;;;;;;0.00;0.00;;;;;;;;5049274;28;8972;-85
2022/02/04 12:10:57;;;;;;;;;0.00;0.00;;;;;;;;5058441;28;8888;-84
2022/02/04 12:13:25;;;;;;;;;0.50;0.00;;;;;;;;5061481;28;8880;-85
2022/02/04 12:15:57;;;;;;;;;0.00;0.00;;;;;;;;5049046;28;8884;-78
2022/02/04 12:18:41;;;;;;;;;0.00;0.00;;;;;;;;5058917;28;9033;-83
2022/02/04 12:21:10;;;;;;;;;0.00;0.00;;;;;;;;5056298;28;8856;-83
2022/02/04 12:23:46;;;;;;;;;0.00;0.00;;;;;;;;5051908;28;8851;-76
2022/02/04 12:26:17;;;;;;;;;0.00;0.00;;;;;;;;5057155;28;8833;-84
2022/02/04 12:28:47;;;;;;;;;0.00;0.00;;;;;;;;5055292;28;8865;-87
2022/02/04 12:31:17;;;;;;;;;0.00;0.00;;;;;;;;5056284;28;8797;-85
2022/02/04 12:33:47;;;;;;;;;0.00;0.00;;;;;;;;5053825;28;8936;-86
2022/02/04 12:36:16;;;;;;;;;0.00;0.00;;;;;;;;5049711;28;8870;-89
2022/02/04 12:38:46;;;;;;;;;0.00;0.00;;;;;;;;5057900;28;9696;-88
2022/02/04 12:41:21;;;;;;;;;0.00;0.00;;;;;;;;5058265;28;8882;-85
2022/02/04 12:43:50;;;;;;;;;0.00;0.00;;;;;;;;5062182;28;9615;-77
2022/02/04 12:46:19;;;;;;;;;0.00;0.00;;;;;;;;5054874;28;9076;-87
2022/02/04 12:49:05;;;;;;;;;0.00;0.00;;;;;;;;5062143;28;8979;-81
2022/02/04 12:51:41;;;;;;;;;0.00;0.00;;;;;;;;5051627;28;8869;-90
2022/02/04 12:54:10;;;;;;;;;2.00;0.00;;;;;;;;5057522;28;9000;-88
2022/02/04 12:56:41;;;;;;;;;0.00;0.00;;;;;;;;5059819;28;8957;-83
2022/02/04 12:59:39;;;;;;;;;0.33;0.33;;;;;;;;5060954;28;8950;-85
2022/02/04 13:02:24;;;;;;;;;0.00;0.00;;;;;;;;5061656;28;8964;-88
2022/02/04 13:07:50;;;;;;;;;0.00;0.00;;;;;;;;5050050;28;8836;-80
2022/02/04 13:10:21;;;;;;;;;0.00;0.00;;;;;;;;5056140;28;8846;-89
2022/02/04 13:12:55;;;;;;;;;0.67;0.00;;;;;;;;5058756;28;8879;-80
2022/02/04 13:15:23;;;;;;;;;0.50;0.50;;;;;;;;5060935;28;8952;-86
2022/02/04 13:17:52;;;;;;;;;0.00;0.00;;;;;;;;5037382;28;8881;-89
2022/02/04 13:20:22;;;;;;;;;0.00;0.00;;;;;;;;5061758;28;8877;-88
2022/02/04 13:22:51;;;;;;;;;2.00;0.25;;;;;;;;5058606;28;8883;-85
2022/02/04 13:25:22;;;;;;;;;0.00;0.00;;;;;;;;5057827;28;8993;-89
2022/02/04 13:28:20;;;;;;;;;2.00;0.00;;;;;;;;5063773;28;8855;-89
2022/02/04 13:30:59;;;;;;;;;0.00;0.00;;;;;;;;4974687;28;8813;-86
2022/02/04 13:33:28;;;;;;;;;1.00;0.25;;;;;;;;5028406;28;8865;-85
2022/02/04 13:36:02;;;;;;;;;2.00;0.00;;;;;;;;5055392;28;8950;-90
2022/02/04 13:38:39;;;;;;;;;1.75;0.00;;;;;;;;5056499;28;8868;-78
2022/02/04 13:41:15;;;;;;;;;0.00;0.00;;;;;;;;5054638;28;8884;-86
2022/02/04 13:44:00;;;;;;;;;0.25;0.25;;;;;;;;5057452;28;9044;-78
2022/02/04 13:46:39;;;;;;;;;2.00;0.00;;;;;;;;5053946;28;8999;-82
2022/02/04 13:49:34;;;;;;;;;0.00;0.00;;;;;;;;5059924;28;8836;-88
2022/02/04 13:52:08;;;;;;;;;0.00;0.00;;;;;;;;5055045;28;9015;-81
2022/02/04 13:54:53;;;;;;;;;0.00;0.00;;;;;;;;5054966;28;9194;-86
2022/02/04 13:57:30;;;;;;;;;0.00;0.00;;;;;;;;5058423;28;9028;-83
2022/02/04 14:00:17;;;;;;;;;0.00;0.00;;;;;;;;5042230;28;9039;-82
2022/02/04 14:02:49;;;;;;;;;2.00;0.00;;;;;;;;5057744;28;8972;-83
2022/02/04 14:05:30;;;;;;;;;0.00;0.00;;;;;;;;5039554;28;9012;-85
2022/02/04 14:08:07;;;;;;;;;0.00;0.00;;;;;;;;5041830;28;9039;-84
2022/02/04 14:10:41;;;;;;;;;0.00;0.00;;;;;;;;5063114;28;9038;-87
2022/02/04 14:13:12;;;;;;;;;0.00;0.00;;;;;;;;5048617;28;9219;-86
2022/02/04 14:15:43;;;;;;;;;0.00;0.00;;;;;;;;5065379;28;9240;-84
2022/02/04 14:18:12;;;;;;;;;0.00;0.00;;;;;;;;5064811;28;9267;-84
2022/02/04 14:20:42;;;;;;;;;0.00;0.00;;;;;;;;5060669;28;9194;-89
2022/02/04 14:23:09;;;;;;;;;0.33;0.00;;;;;;;;5061591;28;9916;-87
2022/02/04 14:25:47;;;;;;;;;0.00;0.00;;;;;;;;5030725;28;9677;-84
2022/02/04 14:28:19;;;;;;;;;0.00;0.00;;;;;;;;5063659;28;8998;-84
2022/02/04 14:30:51;;;;;;;;;0.00;0.00;;;;;;;;5061503;28;8977;-82
2022/02/04 14:33:53;;;;;;;;;0.00;0.00;;;;;;;;5064674;28;9847;-83
2022/02/04 14:36:14;;;;;;;;;0.00;0.00;;;;;;;;5061332;28;9175;-78
2022/02/04 14:50:16;;;;;;;;;0.00;0.00;;;;;;;;5059841;28;9597;-86
2022/02/04 14:52:57;;;;;;;;;0.00;0.00;;;;;;;;5060097;28;9716;-84
2022/02/04 15:00:59;;;;;;;;;0.25;0.00;;;;;;;;5060456;28;10039;-80
2022/02/04 15:03:29;;;;;;;;;0.00;0.00;;;;;;;;5055021;28;11006;-75
2022/02/04 15:06:12;;;;;;;;;0.00;0.00;;;;;;;;5057062;28;10284;-81
2022/02/04 15:08:41;;;;;;;;;0.00;0.00;;;;;;;;5063049;28;10356;-85
2022/02/04 15:11:15;;;;;;;;;0.00;0.00;;;;;;;;5056882;28;10454;-82
2022/02/04 15:13:43;;;;;;;;;0.00;0.00;;;;;;;;5057642;28;10509;-82
2022/02/04 15:16:12;;;;;;;;;0.00;0.00;;;;;;;;5060283;28;10540;-77
2022/02/04 15:18:41;;;;;;;;;0.00;0.00;;;;;;;;5063465;28;10540;-80
2022/02/04 15:21:15;;;;;;;;;0.00;0.00;;;;;;;;5064033;28;10583;-80
2022/02/04 15:23:45;;;;;;;;;0.00;0.00;;;;;;;;5060930;28;10729;-88
2022/02/04 15:26:14;;;;;;;;;0.00;0.00;;;;;;;;5061396;28;11627;-76
2022/02/04 15:28:45;;;;;;;;;0.00;0.00;;;;;;;;5060620;28;10922;-84
2022/02/04 15:31:23;;;;;;;;;0.25;0.00;;;;;;;;5057518;28;10820;-82
2022/02/04 15:33:52;;;;;;;;;0.00;0.00;;;;;;;;5057071;28;10879;-80
2022/02/04 15:36:26;;;;;;;;;0.00;0.00;;;;;;;;5058804;28;10783;-83
2022/02/04 15:38:54;;;;;;;;;0.00;0.00;;;;;;;;5059281;28;10682;-83
2022/02/04 15:41:24;;;;;;;;;0.00;0.00;;;;;;;;5059998;28;10733;-82
2022/02/04 15:43:55;;;;;;;;;0.00;0.00;;;;;;;;5061229;28;10802;-85
2022/02/04 15:46:43;;;;;;;;;0.00;0.00;;;;;;;;5059548;28;10826;-83
2022/02/04 15:49:22;;;;;;;;;0.00;0.00;;;;;;;;5063135;28;11429;-82
2022/02/04 15:54:48;;;;;;;;;0.00;0.00;;;;;;;;5012450;28;10772;-77
2022/02/04 15:57:33;;;;;;;;;0.00;0.00;;;;;;;;5063420;28;10748;-78
2022/02/04 16:00:26;;;;;;;;;0.50;0.00;;;;;;;;5056605;28;10656;-78
2022/02/04 16:03:16;;;;;;;;;0.50;0.00;;;;;;;;5059946;28;10837;-80
2022/02/04 16:05:45;;;;;;;;;0.00;0.00;;;;;;;;5058882;28;11474;-78
2022/02/04 16:08:16;;;;;;;;;0.00;0.00;;;;;;;;5058681;28;10744;-79
2022/02/04 16:13:35;;;;;;;;;0.50;0.00;;;;;;;;5056611;28;10821;-87
2022/02/04 16:16:20;;;;;;;;;0.00;0.00;;;;;;;;5060719;28;10809;-89
2022/02/04 16:19:14;;;;;;;;;0.00;0.00;;;;;;;;5061872;28;10661;-86
2022/02/04 16:22:03;;;;;;;;;0.50;0.00;;;;;;;;5058368;28;10906;-81
2022/02/04 16:30:01;;;;;;;;;0.00;0.00;;;;;;;;5060921;28;11054;-84
2022/02/04 16:32:29;;;;;;;;;0.00;0.00;;;;;;;;5057628;28;10938;-85
2022/02/04 16:35:01;;;;;;;;;2.00;0.00;;;;;;;;5059661;28;11052;-87
2022/02/04 16:37:31;;;;;;;;;0.00;0.00;;;;;;;;5053768;28;11928;-86
2022/02/04 16:40:00;;;;;;;;;0.00;0.00;;;;;;;;5060602;28;11027;-87
2022/02/04 16:42:28;;;;;;;;;0.00;0.00;;;;;;;;5055778;28;11242;-80
2022/02/04 16:44:56;;;;;;;;;0.00;0.00;;;;;;;;5054388;28;11061;-82
2022/02/04 16:47:23;;;;;;;;;0.00;0.00;;;;;;;;5060470;28;11259;-77
2022/02/04 16:49:51;;;;;;;;;0.00;0.00;;;;;;;;5052334;28;11438;-82
2022/02/04 16:52:19;;;;;;;;;0.00;0.00;;;;;;;;5058777;28;11949;-79
2022/02/04 16:54:48;;;;;;;;;0.00;0.00;;;;;;;;5053011;28;11429;-83
2022/02/04 16:57:16;;;;;;;;;0.00;0.00;;;;;;;;5061347;28;11436;-81
2022/02/04 16:59:44;;;;;;;;;1.00;0.00;;;;;;;;5059406;28;11426;-81
2022/02/04 17:02:11;;;;;;;;;0.00;0.00;;;;;;;;5038360;28;11384;-78
2022/02/04 17:04:39;;;;;;;;;0.00;0.00;;;;;;;;5052839;28;11681;-84
2022/02/04 17:07:16;;;;;;;;;0.00;0.00;;;;;;;;5057955;28;11494;-84
2022/02/04 17:09:48;;;;;;;;;0.00;0.00;;;;;;;;5049326;28;11513;-88
2022/02/04 17:12:25;;;;;;;;;0.00;0.00;;;;;;;;5062195;28;11495;-92
2022/02/04 17:14:53;;;;;;;;;0.00;0.00;;;;;;;;5052679;28;11422;-86
2022/02/04 17:17:23;;;;;;;;;1.00;0.00;;;;;;;;5051137;28;11408;-84
2022/02/04 17:20:01;;;;;;;;;0.75;0.00;;;;;;;;5058815;28;12184;-79
2022/02/04 17:22:28;;;;;;;;;0.00;0.00;;;;;;;;5055634;28;11422;-87
2022/02/04 17:24:57;;;;;;;;;0.75;0.75;;;;;;;;5059550;28;11522;-81
2022/02/04 17:27:24;;;;;;;;;0.00;0.00;;;;;;;;5032397;28;12475;-81
2022/02/04 17:29:51;;;;;;;;;2.00;0.75;;;;;;;;5060911;28;11453;-84
2022/02/04 17:32:19;;;;;;;;;0.50;0.50;;;;;;;;5061738;28;11465;-82
2022/02/04 17:34:46;;;;;;;;;1.00;0.75;;;;;;;;5041131;28;11533;-83
2022/02/04 17:37:14;;;;;;;;;0.50;0.50;;;;;;;;5059915;28;11478;-77
2022/02/04 17:39:42;;;;;;;;;1.00;0.00;;;;;;;;5031050;28;12197;-77
2022/02/04 17:42:11;;;;;;;;;2.00;1.00;;;;;;;;5054024;28;11437;-75
2022/02/04 17:44:38;;;;;;;;;0.00;0.00;;;;;;;;5055233;28;11631;-76
2022/02/04 17:47:06;;;;;;;;;0.00;0.00;;;;;;;;5061821;28;12344;-74
2022/02/04 17:49:36;;;;;;;;;2.00;0.00;;;;;;;;5035727;28;11433;-75
2022/02/04 17:52:16;;;;;;;;;2.00;0.00;;;;;;;;5062932;28;11408;-73
2022/02/04 17:54:52;;;;;;;;;0.00;0.00;;;;;;;;5066538;28;11424;-74
2022/02/04 17:57:34;;;;;;;;;0.00;0.00;;;;;;;;5058026;28;11431;-74
2022/02/04 18:00:19;;;;;;;;;1.00;1.00;;;;;;;;5064183;28;11518;-74
2022/02/04 18:03:00;;;;;;;;;0.75;0.00;;;;;;;;5059421;28;11522;-74
2022/02/04 18:05:39;;;;;;;;;0.50;0.50;;;;;;;;5061769;28;11445;-75
2022/02/04 18:08:06;;;;;;;;;1.00;1.00;;;;;;;;5051459;28;12187;-75
2022/02/04 18:10:33;;;;;;;;;0.75;0.75;;;;;;;;5061609;28;12298;-73
2022/02/04 18:13:03;;;;;;;;;0.00;0.00;;;;;;;;5061701;28;11520;-73
2022/02/04 18:15:32;;;;;;;;;0.00;0.00;;;;;;;;5064574;28;11544;-74
2022/02/04 18:18:00;;;;;;;;;4.25;2.00;;;;;;;;5062008;28;12303;-75
2022/02/04 18:20:27;;;;;;;;;1.00;1.00;;;;;;;;5048547;28;11591;-76
2022/02/04 18:22:54;;;;;;;;;5.00;4.00;;;;;;;;5062188;28;11418;-75
2022/02/04 18:25:21;;;;;;;;;1.75;1.75;;;;;;;;5058942;28;11446;-79
2022/02/04 18:27:49;;;;;;;;;4.00;4.00;;;;;;;;5059243;28;11489;-74
2022/02/04 18:30:19;;;;;;;;;5.00;4.00;;;;;;;;5061294;28;11458;-74
2022/02/04 18:32:49;;;;;;;;;2.00;2.00;;;;;;;;5063956;28;11456;-74
2022/02/04 18:35:19;;;;;;;;;3.50;3.50;;;;;;;;5059695;28;11605;-75
2022/02/04 18:37:52;;;;;;;;;4.75;1.25;;;;;;;;5059585;28;12266;-74
2022/02/04 18:40:52;;;;;;;;;4.00;4.00;;;;;;;;5041483;28;11484;-75
2022/02/04 18:46:14;;;;;;;;;4.00;4.00;;;;;;;;5056677;28;12259;-73
2022/02/04 18:48:47;;;;;;;;;3.00;3.00;;;;;;;;5059589;28;11634;-75
2022/02/04 18:51:26;;;;;;;;;2.00;2.00;;;;;;;;5065159;28;11354;-75
2022/02/04 18:53:59;;;;;;;;;1.75;1.00;;;;;;;;5063351;28;11579;-75
2022/02/04 18:56:54;;;;;;;;;2.50;2.50;;;;;;;;5057519;28;11527;-75
2022/02/04 18:59:23;;;;;;;;;3.25;1.00;;;;;;;;5049221;28;11451;-75
2022/02/04 19:01:52;;;;;;;;;2.75;1.00;;;;;;;;5037652;28;11577;-76
2022/02/04 19:04:25;;;;;;;;;4.00;4.00;;;;;;;;5039392;28;11468;-75
2022/02/04 19:07:00;;;;;;;;;2.00;2.00;;;;;;;;5052836;28;11572;-76
2022/02/04 19:09:27;;;;;;;;;1.75;1.00;;;;;;;;5036855;28;12264;-74
2022/02/04 19:12:01;;;;;;;;;2.00;1.00;;;;;;;;5052384;28;11425;-75
2022/02/04 19:14:42;;;;;;;;;1.00;1.00;;;;;;;;5058631;28;11570;-75
2022/02/04 19:17:16;;;;;;;;;4.00;4.00;;;;;;;;5044021;28;11525;-74
2022/02/04 19:19:50;;;;;;;;;4.00;4.00;;;;;;;;5037760;28;11544;-76
2022/02/04 19:22:28;;;;;;;;;2.00;2.00;;;;;;;;5060015;28;11501;-74
2022/02/04 19:24:58;;;;;;;;;13.25;12.00;;;;;;;;5054799;28;11434;-75
2022/02/04 19:27:26;;;;;;;;;9.75;7.50;;;;;;;;5027815;28;11519;-74
2022/02/04 19:29:55;;;;;;;;;5.00;5.00;;;;;;;;5051641;28;11519;-75
2022/02/04 19:32:26;;;;;;;;;7.00;7.00;;;;;;;;5041412;28;11451;-78
2022/02/04 19:34:54;;;;;;;;;5.50;5.50;;;;;;;;5054962;28;11456;-74
2022/02/04 19:37:23;;;;;;;;;6.00;6.00;;;;;;;;5054753;28;11509;-73
2022/02/04 19:39:51;;;;;;;;;8.00;8.00;;;;;;;;5055260;28;11483;-74